sensor_id;sensor_type;location;lat;lon;timestamp;temperature;humidity
67279;DHT22;54193;53.746;10.058;2023-05-24T00:02:27;9.59;78.66
67279;DHT22;54193;53.746;10.058;2023-05-24T00:05:13;9.58;78.69
67279;DHT22;54193;53.746;10.058;2023-05-24T00:08:01;9.62;78.73
67279;DHT22;54193;53.746;10.058;2023-05-24T00:10:47;9.62;78.97
67279;DHT22;54193;53.746;10.058;2023-05-24T00:13:32;9.58;79.20
67279;DHT22;54193;53.746;10.058;2023-05-24T00:16:18;9.67;79.41
67279;DHT22;54193;53.746;10.058;2023-05-24T00:19:04;9.57;79.73
67279;DHT22;54193;53.746;10.058;2023-05-24T00:21:49;9.68;79.85
67279;DHT22;54193;53.746;10.058;2023-05-24T00:24:35;9.54;80.25
67279;DHT22;54193;53.746;10.058;2023-05-24T00:27:21;9.48;80.58
67279;DHT22;54193;53.746;10.058;2023-05-24T00:30:07;9.42;80.91
67279;DHT22;54193;53.746;10.058;2023-05-24T00:32:52;9.42;81.71
67279;DHT22;54193;53.746;10.058;2023-05-24T00:35:38;9.34;82.45
67279;DHT22;54193;53.746;10.058;2023-05-24T00:38:24;9.17;82.64
67279;DHT22;54193;53.746;10.058;2023-05-24T00:41:10;9.14;82.85
67279;DHT22;54193;53.746;10.058;2023-05-24T00:43:56;9.17;83.24
67279;DHT22;54193;53.746;10.058;2023-05-24T00:46:42;9.10;82.64
67279;DHT22;54193;53.746;10.058;2023-05-24T00:49:28;9.19;82.82
67279;DHT22;54193;53.746;10.058;2023-05-24T00:52:14;9.26;82.48
67279;DHT22;54193;53.746;10.058;2023-05-24T00:55:01;9.30;81.98
67279;DHT22;54193;53.746;10.058;2023-05-24T00:57:47;9.34;81.53
67279;DHT22;54193;53.746;10.058;2023-05-24T01:00:33;9.44;81.76
67279;DHT22;54193;53.746;10.058;2023-05-24T01:03:18;9.48;81.21
67279;DHT22;54193;53.746;10.058;2023-05-24T01:06:06;9.50;81.40
67279;DHT22;54193;53.746;10.058;2023-05-24T01:15:16;9.51;81.37
67279;DHT22;54193;53.746;10.058;2023-05-24T01:18:10;9.51;80.96
67279;DHT22;54193;53.746;10.058;2023-05-24T01:21:09;9.57;81.32
67279;DHT22;54193;53.746;10.058;2023-05-24T01:24:24;9.63;80.92
67279;DHT22;54193;53.746;10.058;2023-05-24T01:27:16;9.65;81.06
67279;DHT22;54193;53.746;10.058;2023-05-24T01:30:03;9.69;81.44
67279;DHT22;54193;53.746;10.058;2023-05-24T01:32:50;9.72;81.07
67279;DHT22;54193;53.746;10.058;2023-05-24T01:35:35;9.72;80.69
67279;DHT22;54193;53.746;10.058;2023-05-24T01:38:24;9.81;81.07
67279;DHT22;54193;53.746;10.058;2023-05-24T01:41:46;9.72;81.13
67279;DHT22;54193;53.746;10.058;2023-05-24T01:44:43;9.75;80.74
67279;DHT22;54193;53.746;10.058;2023-05-24T01:50:45;9.75;80.89
67279;DHT22;54193;53.746;10.058;2023-05-24T01:53:39;9.72;81.01
67279;DHT22;54193;53.746;10.058;2023-05-24T01:56:26;9.72;81.16
67279;DHT22;54193;53.746;10.058;2023-05-24T01:59:12;9.67;81.25
67279;DHT22;54193;53.746;10.058;2023-05-24T02:01:59;9.75;81.38
67279;DHT22;54193;53.746;10.058;2023-05-24T02:04:45;9.78;81.43
67279;DHT22;54193;53.746;10.058;2023-05-24T02:07:30;9.83;81.73
67279;DHT22;54193;53.746;10.058;2023-05-24T02:10:16;9.79;81.42
67279;DHT22;54193;53.746;10.058;2023-05-24T02:13:01;9.75;81.41
67279;DHT22;54193;53.746;10.058;2023-05-24T02:15:47;9.71;81.78
67279;DHT22;54193;53.746;10.058;2023-05-24T02:18:33;9.69;81.75
67279;DHT22;54193;53.746;10.058;2023-05-24T02:21:19;9.63;81.87
67279;DHT22;54193;53.746;10.058;2023-05-24T02:24:04;9.68;82.03
67279;DHT22;54193;53.746;10.058;2023-05-24T02:26:52;9.67;82.01
67279;DHT22;54193;53.746;10.058;2023-05-24T02:29:39;9.72;82.14
67279;DHT22;54193;53.746;10.058;2023-05-24T02:32:26;9.75;82.07
67279;DHT22;54193;53.746;10.058;2023-05-24T02:35:12;9.71;82.25
67279;DHT22;54193;53.746;10.058;2023-05-24T02:37:57;9.75;82.48
67279;DHT22;54193;53.746;10.058;2023-05-24T02:40:43;9.68;82.51
67279;DHT22;54193;53.746;10.058;2023-05-24T02:43:28;9.71;82.64
67279;DHT22;54193;53.746;10.058;2023-05-24T02:46:14;9.67;82.89
67279;DHT22;54193;53.746;10.058;2023-05-24T02:49:00;9.62;82.90
67279;DHT22;54193;53.746;10.058;2023-05-24T02:51:45;9.68;82.92
67279;DHT22;54193;53.746;10.058;2023-05-24T02:54:31;9.71;83.01
67279;DHT22;54193;53.746;10.058;2023-05-24T02:57:17;9.74;83.00
67279;DHT22;54193;53.746;10.058;2023-05-24T03:00:04;9.69;83.25
67279;DHT22;54193;53.746;10.058;2023-05-24T03:02:52;9.63;84.17
67279;DHT22;54193;53.746;10.058;2023-05-24T03:05:39;9.54;84.74
67279;DHT22;54193;53.746;10.058;2023-05-24T03:08:25;9.48;84.85
67279;DHT22;54193;53.746;10.058;2023-05-24T03:11:11;9.54;84.76
67279;DHT22;54193;53.746;10.058;2023-05-24T03:13:56;9.58;84.68
67279;DHT22;54193;53.746;10.058;2023-05-24T03:16:42;9.61;84.34
67279;DHT22;54193;53.746;10.058;2023-05-24T03:19:27;9.55;84.54
67279;DHT22;54193;53.746;10.058;2023-05-24T03:22:13;9.62;84.53
67279;DHT22;54193;53.746;10.058;2023-05-24T03:24:59;9.67;84.20
67279;DHT22;54193;53.746;10.058;2023-05-24T03:27:44;9.67;84.40
67279;DHT22;54193;53.746;10.058;2023-05-24T03:30:30;9.65;84.90
67279;DHT22;54193;53.746;10.058;2023-05-24T03:33:16;9.67;84.97
67279;DHT22;54193;53.746;10.058;2023-05-24T03:36:01;9.62;85.00
67279;DHT22;54193;53.746;10.058;2023-05-24T03:38:48;9.67;85.07
67279;DHT22;54193;53.746;10.058;2023-05-24T03:41:34;9.61;84.90
67279;DHT22;54193;53.746;10.058;2023-05-24T03:44:19;9.68;84.93
67279;DHT22;54193;53.746;10.058;2023-05-24T03:47:05;9.68;84.54
67279;DHT22;54193;53.746;10.058;2023-05-24T03:49:51;9.71;84.46
67279;DHT22;54193;53.746;10.058;2023-05-24T03:52:36;9.77;84.62
67279;DHT22;54193;53.746;10.058;2023-05-24T03:55:22;9.78;84.74
67279;DHT22;54193;53.746;10.058;2023-05-24T03:58:09;9.72;85.31
67279;DHT22;54193;53.746;10.058;2023-05-24T04:00:54;9.71;85.54
67279;DHT22;54193;53.746;10.058;2023-05-24T04:03:40;9.68;85.57
67279;DHT22;54193;53.746;10.058;2023-05-24T04:06:26;9.67;85.72
67279;DHT22;54193;53.746;10.058;2023-05-24T04:09:13;9.62;86.48
67279;DHT22;54193;53.746;10.058;2023-05-24T04:11:59;9.68;86.90
67279;DHT22;54193;53.746;10.058;2023-05-24T04:14:45;9.69;87.34
67279;DHT22;54193;53.746;10.058;2023-05-24T04:17:31;9.65;87.90
67279;DHT22;54193;53.746;10.058;2023-05-24T04:20:19;9.54;88.20
67279;DHT22;54193;53.746;10.058;2023-05-24T04:23:09;9.57;88.70
67279;DHT22;54193;53.746;10.058;2023-05-24T04:25:55;9.68;89.05
67279;DHT22;54193;53.746;10.058;2023-05-24T04:28:41;9.67;88.89
67279;DHT22;54193;53.746;10.058;2023-05-24T04:31:26;9.74;89.19
67279;DHT22;54193;53.746;10.058;2023-05-24T04:34:14;9.62;89.71
67279;DHT22;54193;53.746;10.058;2023-05-24T04:37:00;9.71;89.96
67279;DHT22;54193;53.746;10.058;2023-05-24T04:39:46;9.67;89.51
67279;DHT22;54193;53.746;10.058;2023-05-24T04:42:33;9.65;89.91
67279;DHT22;54193;53.746;10.058;2023-05-24T04:45:18;9.68;89.69
67279;DHT22;54193;53.746;10.058;2023-05-24T04:48:04;9.69;89.68
67279;DHT22;54193;53.746;10.058;2023-05-24T04:50:51;9.68;89.63
67279;DHT22;54193;53.746;10.058;2023-05-24T04:53:37;9.78;90.21
67279;DHT22;54193;53.746;10.058;2023-05-24T04:56:23;9.77;90.11
67279;DHT22;54193;53.746;10.058;2023-05-24T04:59:08;9.93;89.94
67279;DHT22;54193;53.746;10.058;2023-05-24T05:01:54;9.86;89.12
67279;DHT22;54193;53.746;10.058;2023-05-24T05:04:40;10.03;89.38
67279;DHT22;54193;53.746;10.058;2023-05-24T05:07:26;10.02;88.88
67279;DHT22;54193;53.746;10.058;2023-05-24T05:10:11;9.95;88.80
67279;DHT22;54193;53.746;10.058;2023-05-24T05:12:57;9.96;88.67
67279;DHT22;54193;53.746;10.058;2023-05-24T05:15:42;10.14;88.99
67279;DHT22;54193;53.746;10.058;2023-05-24T05:18:28;10.24;88.49
67279;DHT22;54193;53.746;10.058;2023-05-24T05:21:14;10.43;88.41
67279;DHT22;54193;53.746;10.058;2023-05-24T05:24:01;10.38;87.84
67279;DHT22;54193;53.746;10.058;2023-05-24T05:26:47;10.44;87.62
67279;DHT22;54193;53.746;10.058;2023-05-24T05:29:33;10.54;87.68
67279;DHT22;54193;53.746;10.058;2023-05-24T05:32:19;10.48;87.26
67279;DHT22;54193;53.746;10.058;2023-05-24T05:35:05;10.61;87.06
67279;DHT22;54193;53.746;10.058;2023-05-24T05:37:50;10.64;87.14
67279;DHT22;54193;53.746;10.058;2023-05-24T05:40:36;10.60;86.84
67279;DHT22;54193;53.746;10.058;2023-05-24T05:43:22;10.48;86.89
67279;DHT22;54193;53.746;10.058;2023-05-24T05:46:07;10.40;86.90
67279;DHT22;54193;53.746;10.058;2023-05-24T05:48:53;10.41;87.07
67279;DHT22;54193;53.746;10.058;2023-05-24T05:51:38;10.37;87.24
67279;DHT22;54193;53.746;10.058;2023-05-24T05:54:24;10.40;86.81
67279;DHT22;54193;53.746;10.058;2023-05-24T05:57:12;10.44;87.12
67279;DHT22;54193;53.746;10.058;2023-05-24T05:59:57;10.36;86.94
67279;DHT22;54193;53.746;10.058;2023-05-24T06:02:43;10.40;86.89
67279;DHT22;54193;53.746;10.058;2023-05-24T06:05:29;10.51;86.70
67279;DHT22;54193;53.746;10.058;2023-05-24T06:08:14;10.43;86.50
67279;DHT22;54193;53.746;10.058;2023-05-24T06:11:00;10.54;86.68
67279;DHT22;54193;53.746;10.058;2023-05-24T06:13:46;10.69;86.52
67279;DHT22;54193;53.746;10.058;2023-05-24T06:16:31;10.79;85.77
67279;DHT22;54193;53.746;10.058;2023-05-24T06:19:17;10.68;86.56
67279;DHT22;54193;53.746;10.058;2023-05-24T06:22:03;10.74;85.51
67279;DHT22;54193;53.746;10.058;2023-05-24T06:24:49;10.72;85.41
67279;DHT22;54193;53.746;10.058;2023-05-24T06:27:34;10.82;85.07
67279;DHT22;54193;53.746;10.058;2023-05-24T06:30:27;10.88;84.55
67279;DHT22;54193;53.746;10.058;2023-05-24T06:33:13;10.98;84.35
67279;DHT22;54193;53.746;10.058;2023-05-24T06:35:59;10.88;84.63
67279;DHT22;54193;53.746;10.058;2023-05-24T06:38:45;10.89;84.36
67279;DHT22;54193;53.746;10.058;2023-05-24T06:41:31;10.78;84.09
67279;DHT22;54193;53.746;10.058;2023-05-24T06:44:16;10.64;84.60
67279;DHT22;54193;53.746;10.058;2023-05-24T06:47:03;10.62;85.16
67279;DHT22;54193;53.746;10.058;2023-05-24T06:49:50;10.65;85.11
67279;DHT22;54193;53.746;10.058;2023-05-24T06:52:35;10.78;84.84
67279;DHT22;54193;53.746;10.058;2023-05-24T06:55:21;10.89;84.43
67279;DHT22;54193;53.746;10.058;2023-05-24T06:58:07;11.16;83.80
67279;DHT22;54193;53.746;10.058;2023-05-24T07:00:58;11.22;82.58
67279;DHT22;54193;53.746;10.058;2023-05-24T07:03:44;11.46;83.57
67279;DHT22;54193;53.746;10.058;2023-05-24T07:06:30;11.22;82.58
67279;DHT22;54193;53.746;10.058;2023-05-24T07:09:18;11.29;83.19
67279;DHT22;54193;53.746;10.058;2023-05-24T07:12:03;11.22;83.11
67279;DHT22;54193;53.746;10.058;2023-05-24T07:14:49;11.33;83.15
67279;DHT22;54193;53.746;10.058;2023-05-24T07:17:35;11.38;82.63
67279;DHT22;54193;53.746;10.058;2023-05-24T07:20:21;11.38;82.42
67279;DHT22;54193;53.746;10.058;2023-05-24T07:23:07;11.53;82.60
67279;DHT22;54193;53.746;10.058;2023-05-24T07:25:52;11.38;82.82
67279;DHT22;54193;53.746;10.058;2023-05-24T07:28:38;11.38;82.15
67279;DHT22;54193;53.746;10.058;2023-05-24T07:31:24;11.34;82.93
67279;DHT22;54193;53.746;10.058;2023-05-24T07:34:11;11.34;82.94
67279;DHT22;54193;53.746;10.058;2023-05-24T07:36:57;11.51;82.78
67279;DHT22;54193;53.746;10.058;2023-05-24T07:39:46;11.50;82.65
67279;DHT22;54193;53.746;10.058;2023-05-24T07:42:32;11.54;83.08
67279;DHT22;54193;53.746;10.058;2023-05-24T07:45:17;11.43;82.21
67279;DHT22;54193;53.746;10.058;2023-05-24T07:48:03;11.37;81.63
67279;DHT22;54193;53.746;10.058;2023-05-24T07:50:49;11.20;82.03
67279;DHT22;54193;53.746;10.058;2023-05-24T07:53:36;11.30;82.14
67279;DHT22;54193;53.746;10.058;2023-05-24T07:56:23;11.36;82.39
67279;DHT22;54193;53.746;10.058;2023-05-24T07:59:09;11.68;82.18
67279;DHT22;54193;53.746;10.058;2023-05-24T08:01:54;11.75;81.80
67279;DHT22;54193;53.746;10.058;2023-05-24T08:04:45;11.79;81.13
67279;DHT22;54193;53.746;10.058;2023-05-24T08:07:31;11.64;81.28
67279;DHT22;54193;53.746;10.058;2023-05-24T08:10:18;11.71;81.56
67279;DHT22;54193;53.746;10.058;2023-05-24T08:13:03;11.84;81.36
67279;DHT22;54193;53.746;10.058;2023-05-24T08:15:50;11.94;80.88
67279;DHT22;54193;53.746;10.058;2023-05-24T08:18:35;11.96;79.97
67279;DHT22;54193;53.746;10.058;2023-05-24T08:21:21;12.09;78.60
67279;DHT22;54193;53.746;10.058;2023-05-24T08:24:07;12.30;78.55
67279;DHT22;54193;53.746;10.058;2023-05-24T08:26:52;12.50;78.23
67279;DHT22;54193;53.746;10.058;2023-05-24T08:29:38;12.77;78.39
67279;DHT22;54193;53.746;10.058;2023-05-24T08:32:24;13.11;76.12
67279;DHT22;54193;53.746;10.058;2023-05-24T08:35:10;13.73;74.98
67279;DHT22;54193;53.746;10.058;2023-05-24T08:37:55;13.54;74.31
67279;DHT22;54193;53.746;10.058;2023-05-24T08:40:41;13.73;74.37
67279;DHT22;54193;53.746;10.058;2023-05-24T08:43:28;14.12;73.64
67279;DHT22;54193;53.746;10.058;2023-05-24T08:46:16;13.60;74.82
67279;DHT22;54193;53.746;10.058;2023-05-24T08:49:02;13.50;75.08
67279;DHT22;54193;53.746;10.058;2023-05-24T08:51:48;13.40;75.72
67279;DHT22;54193;53.746;10.058;2023-05-24T08:54:36;13.38;75.06
67279;DHT22;54193;53.746;10.058;2023-05-24T08:57:25;13.63;75.27
67279;DHT22;54193;53.746;10.058;2023-05-24T09:00:11;14.05;74.01
67279;DHT22;54193;53.746;10.058;2023-05-24T09:02:58;14.14;73.55
67279;DHT22;54193;53.746;10.058;2023-05-24T09:05:44;14.57;72.18
67279;DHT22;54193;53.746;10.058;2023-05-24T09:08:31;15.15;70.72
67279;DHT22;54193;53.746;10.058;2023-05-24T09:11:19;14.84;71.69
67279;DHT22;54193;53.746;10.058;2023-05-24T09:14:07;14.39;73.19
67279;DHT22;54193;53.746;10.058;2023-05-24T09:16:53;14.52;74.16
67279;DHT22;54193;53.746;10.058;2023-05-24T09:19:50;14.55;73.45
67279;DHT22;54193;53.746;10.058;2023-05-24T09:22:40;14.45;73.59
67279;DHT22;54193;53.746;10.058;2023-05-24T09:25:27;14.17;74.22
67279;DHT22;54193;53.746;10.058;2023-05-24T09:28:15;14.24;74.90
67279;DHT22;54193;53.746;10.058;2023-05-24T09:31:02;14.26;73.51
67279;DHT22;54193;53.746;10.058;2023-05-24T09:33:48;13.82;74.31
67279;DHT22;54193;53.746;10.058;2023-05-24T09:36:34;13.80;74.88
67279;DHT22;54193;53.746;10.058;2023-05-24T09:39:21;14.02;74.74
67279;DHT22;54193;53.746;10.058;2023-05-24T09:42:07;13.80;75.44
67279;DHT22;54193;53.746;10.058;2023-05-24T09:45:04;13.60;75.66
67279;DHT22;54193;53.746;10.058;2023-05-24T09:47:56;13.47;76.01
67279;DHT22;54193;53.746;10.058;2023-05-24T09:50:42;13.46;75.43
67279;DHT22;54193;53.746;10.058;2023-05-24T09:53:33;13.35;75.49
67279;DHT22;54193;53.746;10.058;2023-05-24T09:56:19;13.57;74.86
67279;DHT22;54193;53.746;10.058;2023-05-24T09:59:06;13.84;73.01
67279;DHT22;54193;53.746;10.058;2023-05-24T10:02:06;14.09;71.41
67279;DHT22;54193;53.746;10.058;2023-05-24T10:04:58;14.12;72.43
67279;DHT22;54193;53.746;10.058;2023-05-24T10:07:45;14.52;70.29
67279;DHT22;54193;53.746;10.058;2023-05-24T10:10:32;14.64;70.19
67279;DHT22;54193;53.746;10.058;2023-05-24T10:13:21;14.40;69.84
67279;DHT22;54193;53.746;10.058;2023-05-24T10:16:07;14.76;69.49
67279;DHT22;54193;53.746;10.058;2023-05-24T10:18:53;15.07;68.75
67279;DHT22;54193;53.746;10.058;2023-05-24T10:21:40;15.28;67.09
67279;DHT22;54193;53.746;10.058;2023-05-24T10:24:31;15.04;66.05
67279;DHT22;54193;53.746;10.058;2023-05-24T10:27:22;15.25;65.84
67279;DHT22;54193;53.746;10.058;2023-05-24T10:30:17;15.12;65.27
67279;DHT22;54193;53.746;10.058;2023-05-24T10:33:05;14.94;66.46
67279;DHT22;54193;53.746;10.058;2023-05-24T10:35:52;15.14;64.58
67279;DHT22;54193;53.746;10.058;2023-05-24T10:38:38;15.24;64.69
67279;DHT22;54193;53.746;10.058;2023-05-24T10:41:25;15.39;64.22
67279;DHT22;54193;53.746;10.058;2023-05-24T10:44:13;15.70;63.55
67279;DHT22;54193;53.746;10.058;2023-05-24T10:47:13;15.45;64.23
67279;DHT22;54193;53.746;10.058;2023-05-24T10:50:20;15.25;64.27
67279;DHT22;54193;53.746;10.058;2023-05-24T10:53:13;15.05;63.75
67279;DHT22;54193;53.746;10.058;2023-05-24T10:56:01;15.17;64.46
67279;DHT22;54193;53.746;10.058;2023-05-24T11:01:39;15.36;63.73
67279;DHT22;54193;53.746;10.058;2023-05-24T11:04:31;16.00;63.45
67279;DHT22;54193;53.746;10.058;2023-05-24T11:07:17;15.62;62.41
67279;DHT22;54193;53.746;10.058;2023-05-24T11:10:08;15.48;63.21
67279;DHT22;54193;53.746;10.058;2023-05-24T11:13:01;15.97;63.14
67279;DHT22;54193;53.746;10.058;2023-05-24T11:15:49;16.21;61.93
67279;DHT22;54193;53.746;10.058;2023-05-24T11:18:35;15.74;63.43
67279;DHT22;54193;53.746;10.058;2023-05-24T11:21:26;15.52;65.38
67279;DHT22;54193;53.746;10.058;2023-05-24T11:24:12;15.60;64.75
67279;DHT22;54193;53.746;10.058;2023-05-24T11:26:59;15.59;64.24
67279;DHT22;54193;53.746;10.058;2023-05-24T11:29:46;15.65;64.71
67279;DHT22;54193;53.746;10.058;2023-05-24T11:32:32;16.53;64.52
67279;DHT22;54193;53.746;10.058;2023-05-24T11:35:18;15.93;63.74
67279;DHT22;54193;53.746;10.058;2023-05-24T11:38:12;15.52;64.78
67279;DHT22;54193;53.746;10.058;2023-05-24T11:40:58;15.82;64.78
67279;DHT22;54193;53.746;10.058;2023-05-24T11:43:44;15.57;64.93
67279;DHT22;54193;53.746;10.058;2023-05-24T11:46:30;15.32;65.91
67279;DHT22;54193;53.746;10.058;2023-05-24T11:49:16;15.02;65.47
67279;DHT22;54193;53.746;10.058;2023-05-24T11:52:02;15.12;65.34
67279;DHT22;54193;53.746;10.058;2023-05-24T11:54:49;15.24;66.17
67279;DHT22;54193;53.746;10.058;2023-05-24T11:57:41;15.45;65.58
67279;DHT22;54193;53.746;10.058;2023-05-24T12:00:30;15.39;65.63
67279;DHT22;54193;53.746;10.058;2023-05-24T12:03:16;15.86;64.66
67279;DHT22;54193;53.746;10.058;2023-05-24T12:06:02;16.18;64.59
67279;DHT22;54193;53.746;10.058;2023-05-24T12:08:48;15.74;64.11
67279;DHT22;54193;53.746;10.058;2023-05-24T12:11:37;15.86;64.08
67279;DHT22;54193;53.746;10.058;2023-05-24T12:14:27;16.73;63.12
67279;DHT22;54193;53.746;10.058;2023-05-24T12:17:13;16.05;62.34
67279;DHT22;54193;53.746;10.058;2023-05-24T12:20:01;15.66;62.78
67279;DHT22;54193;53.746;10.058;2023-05-24T12:22:51;16.17;63.25
67279;DHT22;54193;53.746;10.058;2023-05-24T12:25:37;15.80;62.66
67279;DHT22;54193;53.746;10.058;2023-05-24T12:28:22;15.82;62.17
67279;DHT22;54193;53.746;10.058;2023-05-24T12:31:09;16.26;63.48
67279;DHT22;54193;53.746;10.058;2023-05-24T12:33:55;15.96;62.80
67279;DHT22;54193;53.746;10.058;2023-05-24T12:36:41;15.34;63.07
67279;DHT22;54193;53.746;10.058;2023-05-24T12:39:28;15.40;63.22
67279;DHT22;54193;53.746;10.058;2023-05-24T12:42:19;15.57;62.68
67279;DHT22;54193;53.746;10.058;2023-05-24T12:45:08;15.82;63.83
67279;DHT22;54193;53.746;10.058;2023-05-24T12:47:55;16.15;61.75
67279;DHT22;54193;53.746;10.058;2023-05-24T12:50:41;16.47;60.55
67279;DHT22;54193;53.746;10.058;2023-05-24T12:53:27;16.15;62.90
67279;DHT22;54193;53.746;10.058;2023-05-24T12:56:14;15.97;63.40
67279;DHT22;54193;53.746;10.058;2023-05-24T12:59:00;16.44;62.31
67279;DHT22;54193;53.746;10.058;2023-05-24T13:01:45;16.36;61.63
67279;DHT22;54193;53.746;10.058;2023-05-24T13:04:35;16.07;60.94
67279;DHT22;54193;53.746;10.058;2023-05-24T13:07:20;16.38;61.42
67279;DHT22;54193;53.746;10.058;2023-05-24T13:10:07;16.69;60.18
67279;DHT22;54193;53.746;10.058;2023-05-24T13:12:53;16.59;61.36
67279;DHT22;54193;53.746;10.058;2023-05-24T13:15:38;17.06;59.08
67279;DHT22;54193;53.746;10.058;2023-05-24T13:18:26;17.23;57.64
67279;DHT22;54193;53.746;10.058;2023-05-24T13:21:11;16.91;58.39
67279;DHT22;54193;53.746;10.058;2023-05-24T13:23:58;16.90;59.75
67279;DHT22;54193;53.746;10.058;2023-05-24T13:26:44;17.10;58.61
67279;DHT22;54193;53.746;10.058;2023-05-24T13:29:31;16.55;60.44
67279;DHT22;54193;53.746;10.058;2023-05-24T13:32:17;16.60;60.92
67279;DHT22;54193;53.746;10.058;2023-05-24T13:35:04;16.49;61.29
67279;DHT22;54193;53.746;10.058;2023-05-24T13:37:50;17.25;59.97
67279;DHT22;54193;53.746;10.058;2023-05-24T13:40:39;17.38;60.15
67279;DHT22;54193;53.746;10.058;2023-05-24T13:43:24;16.77;61.60
67279;DHT22;54193;53.746;10.058;2023-05-24T13:46:10;16.36;62.08
67279;DHT22;54193;53.746;10.058;2023-05-24T13:48:58;15.87;62.64
67279;DHT22;54193;53.746;10.058;2023-05-24T13:51:44;16.15;62.39
67279;DHT22;54193;53.746;10.058;2023-05-24T13:54:30;16.41;62.04
67279;DHT22;54193;53.746;10.058;2023-05-24T13:57:16;16.73;61.38
67279;DHT22;54193;53.746;10.058;2023-05-24T14:00:02;16.77;60.93
67279;DHT22;54193;53.746;10.058;2023-05-24T14:02:49;16.91;59.66
67279;DHT22;54193;53.746;10.058;2023-05-24T14:05:36;16.52;59.97
67279;DHT22;54193;53.746;10.058;2023-05-24T14:08:22;16.86;59.67
67279;DHT22;54193;53.746;10.058;2023-05-24T14:11:07;16.63;61.31
67279;DHT22;54193;53.746;10.058;2023-05-24T14:13:53;16.41;58.95
67279;DHT22;54193;53.746;10.058;2023-05-24T14:16:38;16.53;60.27
67279;DHT22;54193;53.746;10.058;2023-05-24T14:19:24;16.77;59.60
67279;DHT22;54193;53.746;10.058;2023-05-24T14:22:10;16.84;58.17
67279;DHT22;54193;53.746;10.058;2023-05-24T14:24:55;16.84;58.13
67279;DHT22;54193;53.746;10.058;2023-05-24T14:27:42;17.18;57.37
67279;DHT22;54193;53.746;10.058;2023-05-24T14:30:30;17.20;59.58
67279;DHT22;54193;53.746;10.058;2023-05-24T14:33:16;17.58;57.65
67279;DHT22;54193;53.746;10.058;2023-05-24T14:36:02;18.26;56.73
67279;DHT22;54193;53.746;10.058;2023-05-24T14:38:47;18.51;57.04
67279;DHT22;54193;53.746;10.058;2023-05-24T14:41:33;18.54;57.33
67279;DHT22;54193;53.746;10.058;2023-05-24T14:44:19;18.56;58.16
67279;DHT22;54193;53.746;10.058;2023-05-24T14:47:05;18.55;58.06
67279;DHT22;54193;53.746;10.058;2023-05-24T14:49:57;17.94;58.73
67279;DHT22;54193;53.746;10.058;2023-05-24T14:52:43;18.09;60.40
67279;DHT22;54193;53.746;10.058;2023-05-24T14:55:28;18.10;59.34
67279;DHT22;54193;53.746;10.058;2023-05-24T14:58:14;17.63;60.52
67279;DHT22;54193;53.746;10.058;2023-05-24T15:01:00;17.00;61.54
67279;DHT22;54193;53.746;10.058;2023-05-24T15:03:46;17.21;61.83
67279;DHT22;54193;53.746;10.058;2023-05-24T15:06:31;17.15;64.22
67279;DHT22;54193;53.746;10.058;2023-05-24T15:09:19;17.39;64.01
67279;DHT22;54193;53.746;10.058;2023-05-24T15:12:06;17.48;63.68
67279;DHT22;54193;53.746;10.058;2023-05-24T15:14:52;17.55;63.04
67279;DHT22;54193;53.746;10.058;2023-05-24T15:17:38;17.48;63.25
67279;DHT22;54193;53.746;10.058;2023-05-24T15:20:24;17.48;64.36
67279;DHT22;54193;53.746;10.058;2023-05-24T15:23:10;17.25;66.01
67279;DHT22;54193;53.746;10.058;2023-05-24T15:25:55;16.93;65.38
67279;DHT22;54193;53.746;10.058;2023-05-24T15:28:42;16.91;66.61
67279;DHT22;54193;53.746;10.058;2023-05-24T15:31:28;17.23;66.09
67279;DHT22;54193;53.746;10.058;2023-05-24T15:34:13;17.08;65.36
67279;DHT22;54193;53.746;10.058;2023-05-24T15:36:59;16.76;65.83
67279;DHT22;54193;53.746;10.058;2023-05-24T15:39:45;16.65;66.83
67279;DHT22;54193;53.746;10.058;2023-05-24T15:42:30;16.66;66.81
67279;DHT22;54193;53.746;10.058;2023-05-24T15:45:16;16.72;67.01
67279;DHT22;54193;53.746;10.058;2023-05-24T15:48:02;16.89;67.21
67279;DHT22;54193;53.746;10.058;2023-05-24T15:50:51;16.80;66.28
67279;DHT22;54193;53.746;10.058;2023-05-24T15:53:36;16.65;65.96
67279;DHT22;54193;53.746;10.058;2023-05-24T15:56:22;16.70;66.98
67279;DHT22;54193;53.746;10.058;2023-05-24T15:59:07;16.22;67.03
67279;DHT22;54193;53.746;10.058;2023-05-24T16:01:53;16.32;67.58
67279;DHT22;54193;53.746;10.058;2023-05-24T16:04:39;16.52;67.24
67279;DHT22;54193;53.746;10.058;2023-05-24T16:07:25;16.60;67.64
67279;DHT22;54193;53.746;10.058;2023-05-24T16:10:10;16.48;68.33
67279;DHT22;54193;53.746;10.058;2023-05-24T16:12:56;16.44;69.31
67279;DHT22;54193;53.746;10.058;2023-05-24T16:15:42;16.55;68.54
67279;DHT22;54193;53.746;10.058;2023-05-24T16:18:35;16.77;68.51
67279;DHT22;54193;53.746;10.058;2023-05-24T16:21:21;16.97;69.58
67279;DHT22;54193;53.746;10.058;2023-05-24T16:24:08;16.72;69.80
67279;DHT22;54193;53.746;10.058;2023-05-24T16:26:55;16.81;68.98
67279;DHT22;54193;53.746;10.058;2023-05-24T16:29:41;16.68;69.21
67279;DHT22;54193;53.746;10.058;2023-05-24T16:32:27;16.93;70.16
67279;DHT22;54193;53.746;10.058;2023-05-24T16:35:12;16.84;70.14
67279;DHT22;54193;53.746;10.058;2023-05-24T16:37:58;16.89;70.59
67279;DHT22;54193;53.746;10.058;2023-05-24T16:40:44;16.52;69.94
67279;DHT22;54193;53.746;10.058;2023-05-24T16:43:29;16.56;70.75
67279;DHT22;54193;53.746;10.058;2023-05-24T16:46:15;16.48;70.32
67279;DHT22;54193;53.746;10.058;2023-05-24T16:49:02;16.52;70.93
67279;DHT22;54193;53.746;10.058;2023-05-24T16:51:47;16.58;70.36
67279;DHT22;54193;53.746;10.058;2023-05-24T16:54:33;16.66;70.93
67279;DHT22;54193;53.746;10.058;2023-05-24T16:57:19;16.80;69.94
67279;DHT22;54193;53.746;10.058;2023-05-24T17:00:06;17.00;70.05
67279;DHT22;54193;53.746;10.058;2023-05-24T17:02:51;16.87;70.08
67279;DHT22;54193;53.746;10.058;2023-05-24T17:05:38;16.80;70.50
67279;DHT22;54193;53.746;10.058;2023-05-24T17:08:24;16.60;70.82
67279;DHT22;54193;53.746;10.058;2023-05-24T17:11:11;16.29;71.54
67279;DHT22;54193;53.746;10.058;2023-05-24T17:13:59;16.32;71.78
67279;DHT22;54193;53.746;10.058;2023-05-24T17:16:45;16.25;72.28
67279;DHT22;54193;53.746;10.058;2023-05-24T17:19:31;16.10;72.93
67279;DHT22;54193;53.746;10.058;2023-05-24T17:22:16;16.15;73.10
67279;DHT22;54193;53.746;10.058;2023-05-24T17:25:02;16.08;72.91
67279;DHT22;54193;53.746;10.058;2023-05-24T17:27:48;16.07;73.62
67279;DHT22;54193;53.746;10.058;2023-05-24T17:30:34;16.00;74.10
67279;DHT22;54193;53.746;10.058;2023-05-24T17:33:21;15.98;73.79
67279;DHT22;54193;53.746;10.058;2023-05-24T17:36:07;16.00;73.97